sensor_id;sensor_type;location;lat;lon;timestamp;pressure;altitude;pressure_sealevel;temperature;humidity
21555;BME280;10938;44.794;-0.676;2023-02-08T00:57:00;102522.84;;;7.18;100.00
21555;BME280;10938;44.794;-0.676;2023-02-08T00:59:26;102518.34;;;7.00;100.00
21555;BME280;10938;44.794;-0.676;2023-02-08T02:06:29;102505.09;;;7.73;100.00
21555;BME280;10938;44.794;-0.676;2023-02-08T02:09:15;102502.22;;;7.85;99.88
21555;BME280;10938;44.794;-0.676;2023-02-08T02:11:43;102503.28;;;7.88;99.17
21555;BME280;10938;44.794;-0.676;2023-02-08T02:14:09;102499.88;;;7.89;98.74
21555;BME280;10938;44.794;-0.676;2023-02-08T02:16:35;102494.75;;;7.91;97.89
21555;BME280;10938;44.794;-0.676;2023-02-08T02:19:01;102500.19;;;7.95;98.14
21555;BME280;10938;44.794;-0.676;2023-02-08T02:33:34;102507.16;;;7.48;99.98
21555;BME280;10938;44.794;-0.676;2023-02-08T02:36:15;102514.63;;;7.42;99.69
21555;BME280;10938;44.794;-0.676;2023-02-08T02:39:09;102517.56;;;6.86;100.00
21555;BME280;10938;44.794;-0.676;2023-02-08T02:47:59;102519.72;;;6.79;100.00
21555;BME280;10938;44.794;-0.676;2023-02-08T02:50:33;102521.91;;;6.56;100.00
21555;BME280;10938;44.794;-0.676;2023-02-08T02:53:59;102523.84;;;6.31;100.00
21555;BME280;10938;44.794;-0.676;2023-02-08T02:56:05;102521.88;;;6.42;100.00
21555;BME280;10938;44.794;-0.676;2023-02-08T02:58:34;102522.69;;;6.55;100.00
21555;BME280;10938;44.794;-0.676;2023-02-08T03:01:02;102515.25;;;6.61;100.00
21555;BME280;10938;44.794;-0.676;2023-02-08T03:03:31;102523.50;;;6.69;100.00
21555;BME280;10938;44.794;-0.676;2023-02-08T03:06:12;102512.72;;;6.92;100.00
21555;BME280;10938;44.794;-0.676;2023-02-08T03:11:35;102516.28;;;6.94;100.00
21555;BME280;10938;44.794;-0.676;2023-02-08T03:19:08;102528.91;;;7.34;100.00
21555;BME280;10938;44.794;-0.676;2023-02-08T03:21:51;102519.94;;;7.29;100.00
21555;BME280;10938;44.794;-0.676;2023-02-08T03:24:34;102523.50;;;7.31;100.00
21555;BME280;10938;44.794;-0.676;2023-02-08T03:27:29;102519.78;;;7.25;100.00
21555;BME280;10938;44.794;-0.676;2023-02-08T03:30:15;102519.22;;;7.31;100.00
21555;BME280;10938;44.794;-0.676;2023-02-08T03:38:27;102521.19;;;7.51;99.25
21555;BME280;10938;44.794;-0.676;2023-02-08T03:41:00;102511.25;;;7.12;100.00
21555;BME280;10938;44.794;-0.676;2023-02-08T03:43:36;102511.97;;;7.09;100.00
21555;BME280;10938;44.794;-0.676;2023-02-08T03:46:13;102507.78;;;7.28;100.00
21555;BME280;10938;44.794;-0.676;2023-02-08T03:48:45;102513.50;;;7.37;100.00
21555;BME280;10938;44.794;-0.676;2023-02-08T03:51:13;102511.88;;;7.39;99.05
21555;BME280;10938;44.794;-0.676;2023-02-08T03:53:41;102506.84;;;7.42;98.59
21555;BME280;10938;44.794;-0.676;2023-02-08T03:56:27;102505.72;;;7.37;98.61
21555;BME280;10938;44.794;-0.676;2023-02-08T03:59:01;102506.69;;;7.39;98.14
21555;BME280;10938;44.794;-0.676;2023-02-08T04:01:31;102498.25;;;7.43;98.04
21555;BME280;10938;44.794;-0.676;2023-02-08T04:04:01;102504.66;;;7.49;97.30
21555;BME280;10938;44.794;-0.676;2023-02-08T04:06:26;102502.41;;;7.55;97.30
21555;BME280;10938;44.794;-0.676;2023-02-08T04:08:52;102497.47;;;7.60;96.82
21555;BME280;10938;44.794;-0.676;2023-02-08T04:11:18;102508.53;;;7.57;97.14
21555;BME280;10938;44.794;-0.676;2023-02-08T04:13:44;102512.19;;;7.61;96.10
21555;BME280;10938;44.794;-0.676;2023-02-08T04:16:11;102509.44;;;7.58;96.14
21555;BME280;10938;44.794;-0.676;2023-02-08T04:18:36;102506.84;;;7.58;96.35
21555;BME280;10938;44.794;-0.676;2023-02-08T04:21:02;102517.56;;;7.64;96.04
21555;BME280;10938;44.794;-0.676;2023-02-08T04:23:27;102510.59;;;7.63;96.23
21555;BME280;10938;44.794;-0.676;2023-02-08T04:25:53;102521.16;;;7.66;95.42
21555;BME280;10938;44.794;-0.676;2023-02-08T04:28:18;102513.63;;;7.23;96.86
21555;BME280;10938;44.794;-0.676;2023-02-08T04:30:43;102528.84;;;7.17;97.42
21555;BME280;10938;44.794;-0.676;2023-02-08T04:33:11;102525.97;;;6.97;98.05
21555;BME280;10938;44.794;-0.676;2023-02-08T04:35:41;102530.38;;;6.68;98.50
21555;BME280;10938;44.794;-0.676;2023-02-08T04:38:07;102537.97;;;6.36;100.00
21555;BME280;10938;44.794;-0.676;2023-02-08T04:40:33;102534.03;;;6.13;100.00
21555;BME280;10938;44.794;-0.676;2023-02-08T04:42:58;102540.06;;;6.14;100.00
21555;BME280;10938;44.794;-0.676;2023-02-08T04:45:24;102538.03;;;6.08;100.00
21555;BME280;10938;44.794;-0.676;2023-02-08T04:47:51;102546.13;;;6.00;100.00
21555;BME280;10938;44.794;-0.676;2023-02-08T04:50:17;102550.84;;;5.92;100.00
21555;BME280;10938;44.794;-0.676;2023-02-08T04:52:42;102548.47;;;6.10;100.00
21555;BME280;10938;44.794;-0.676;2023-02-08T04:55:08;102548.84;;;6.31;100.00
21555;BME280;10938;44.794;-0.676;2023-02-08T04:57:33;102549.84;;;6.33;100.00
21555;BME280;10938;44.794;-0.676;2023-02-08T04:59:58;102559.84;;;6.41;100.00
21555;BME280;10938;44.794;-0.676;2023-02-08T05:02:24;102557.81;;;6.80;100.00
21555;BME280;10938;44.794;-0.676;2023-02-08T05:04:49;102558.69;;;6.80;100.00
21555;BME280;10938;44.794;-0.676;2023-02-08T05:07:15;102556.34;;;6.99;99.50
21555;BME280;10938;44.794;-0.676;2023-02-08T05:09:40;102554.09;;;7.05;98.51
21555;BME280;10938;44.794;-0.676;2023-02-08T05:12:06;102550.06;;;7.10;98.26
21555;BME280;10938;44.794;-0.676;2023-02-08T05:14:31;102544.34;;;7.01;98.78
21555;BME280;10938;44.794;-0.676;2023-02-08T05:16:59;102544.38;;;6.87;99.37
21555;BME280;10938;44.794;-0.676;2023-02-08T05:19:25;102548.56;;;6.99;98.50
21555;BME280;10938;44.794;-0.676;2023-02-08T05:21:50;102551.84;;;7.11;97.84
21555;BME280;10938;44.794;-0.676;2023-02-08T05:24:16;102550.06;;;7.10;97.28
21555;BME280;10938;44.794;-0.676;2023-02-08T05:26:41;102552.34;;;7.20;96.66
21555;BME280;10938;44.794;-0.676;2023-02-08T05:29:07;102558.81;;;7.27;96.78
21555;BME280;10938;44.794;-0.676;2023-02-08T05:31:32;102551.97;;;7.29;96.38
21555;BME280;10938;44.794;-0.676;2023-02-08T05:33:58;102566.31;;;7.22;96.60
21555;BME280;10938;44.794;-0.676;2023-02-08T05:36:23;102554.09;;;7.05;97.26
21555;BME280;10938;44.794;-0.676;2023-02-08T05:38:49;102556.56;;;7.18;96.86
21555;BME280;10938;44.794;-0.676;2023-02-08T05:41:15;102562.09;;;7.24;96.10
21555;BME280;10938;44.794;-0.676;2023-02-08T05:43:41;102557.00;;;7.26;96.13
21555;BME280;10938;44.794;-0.676;2023-02-08T05:46:06;102558.97;;;7.30;96.41
21555;BME280;10938;44.794;-0.676;2023-02-08T05:48:32;102550.34;;;7.31;96.13
21555;BME280;10938;44.794;-0.676;2023-02-08T05:50:58;102552.88;;;7.30;96.14
21555;BME280;10938;44.794;-0.676;2023-02-08T05:53:24;102555.91;;;7.37;95.81
21555;BME280;10938;44.794;-0.676;2023-02-08T05:55:49;102569.84;;;7.39;95.14
21555;BME280;10938;44.794;-0.676;2023-02-08T05:58:15;102563.59;;;7.36;95.24
21555;BME280;10938;44.794;-0.676;2023-02-08T06:00:41;102567.72;;;7.32;94.88
21555;BME280;10938;44.794;-0.676;2023-02-08T06:03:07;102562.44;;;7.31;95.11
21555;BME280;10938;44.794;-0.676;2023-02-08T06:05:33;102568.50;;;7.31;95.48
21555;BME280;10938;44.794;-0.676;2023-02-08T06:07:59;102568.28;;;7.27;94.72
21555;BME280;10938;44.794;-0.676;2023-02-08T06:10:24;102577.47;;;7.21;94.84
21555;BME280;10938;44.794;-0.676;2023-02-08T06:12:49;102577.91;;;7.29;94.96
21555;BME280;10938;44.794;-0.676;2023-02-08T06:15:15;102575.22;;;7.28;93.89
21555;BME280;10938;44.794;-0.676;2023-02-08T06:17:40;102572.56;;;7.26;94.47
21555;BME280;10938;44.794;-0.676;2023-02-08T06:20:06;102577.59;;;7.23;94.52
21555;BME280;10938;44.794;-0.676;2023-02-08T06:22:33;102577.47;;;7.21;94.08
21555;BME280;10938;44.794;-0.676;2023-02-08T06:24:59;102578.66;;;7.12;94.60
21555;BME280;10938;44.794;-0.676;2023-02-08T06:27:24;102577.94;;;7.14;94.90
21555;BME280;10938;44.794;-0.676;2023-02-08T06:29:50;102578.09;;;7.17;93.70
21555;BME280;10938;44.794;-0.676;2023-02-08T06:32:15;102574.56;;;7.15;93.81
21555;BME280;10938;44.794;-0.676;2023-02-08T06:34:41;102572.69;;;7.13;94.16
21555;BME280;10938;44.794;-0.676;2023-02-08T06:37:06;102574.56;;;7.15;94.04
21555;BME280;10938;44.794;-0.676;2023-02-08T06:39:32;102570.09;;;7.13;93.66
21555;BME280;10938;44.794;-0.676;2023-02-08T06:41:57;102564.00;;;7.12;94.08
21555;BME280;10938;44.794;-0.676;2023-02-08T06:44:23;102572.06;;;7.17;94.59
21555;BME280;10938;44.794;-0.676;2023-02-08T06:46:51;102570.22;;;6.85;95.80
21555;BME280;10938;44.794;-0.676;2023-02-08T06:49:17;102579.31;;;6.64;97.26
21555;BME280;10938;44.794;-0.676;2023-02-08T06:51:42;102571.38;;;6.04;100.00
21555;BME280;10938;44.794;-0.676;2023-02-08T06:55:00;102576.00;;;5.95;100.00
21555;BME280;10938;44.794;-0.676;2023-02-08T06:57:18;102566.66;;;5.97;100.00
21555;BME280;10938;44.794;-0.676;2023-02-08T06:59:44;102567.16;;;5.91;100.00
21555;BME280;10938;44.794;-0.676;2023-02-08T07:02:18;102576.47;;;5.61;100.00
21555;BME280;10938;44.794;-0.676;2023-02-08T07:04:44;102572.19;;;5.62;100.00
21555;BME280;10938;44.794;-0.676;2023-02-08T07:07:11;102578.56;;;5.67;100.00
21555;BME280;10938;44.794;-0.676;2023-02-08T07:09:37;102581.38;;;5.44;100.00
21555;BME280;10938;44.794;-0.676;2023-02-08T07:12:03;102581.00;;;5.38;100.00
21555;BME280;10938;44.794;-0.676;2023-02-08T07:14:35;102587.34;;;5.56;100.00
21555;BME280;10938;44.794;-0.676;2023-02-08T07:17:02;102587.19;;;5.40;100.00
21555;BME280;10938;44.794;-0.676;2023-02-08T07:19:30;102594.94;;;5.40;100.00
21555;BME280;10938;44.794;-0.676;2023-02-08T07:21:56;102597.53;;;5.40;100.00
21555;BME280;10938;44.794;-0.676;2023-02-08T07:24:27;102589.44;;;5.48;100.00
21555;BME280;10938;44.794;-0.676;2023-02-08T07:26:52;102602.19;;;6.27;100.00
21555;BME280;10938;44.794;-0.676;2023-02-08T07:29:18;102595.25;;;6.99;100.00
21555;BME280;10938;44.794;-0.676;2023-02-08T07:31:43;102603.59;;;7.24;97.99
21555;BME280;10938;44.794;-0.676;2023-02-08T07:34:09;102600.47;;;7.15;97.46
21555;BME280;10938;44.794;-0.676;2023-02-08T07:36:34;102604.16;;;7.04;98.70
21555;BME280;10938;44.794;-0.676;2023-02-08T07:38:59;102599.28;;;7.40;96.94
21555;BME280;10938;44.794;-0.676;2023-02-08T07:41:25;102587.38;;;7.90;94.09
21555;BME280;10938;44.794;-0.676;2023-02-08T07:43:50;102585.94;;;7.81;94.65
21555;BME280;10938;44.794;-0.676;2023-02-08T07:46:19;102592.13;;;7.66;95.66
21555;BME280;10938;44.794;-0.676;2023-02-08T07:48:45;102588.81;;;7.85;94.46
21555;BME280;10938;44.794;-0.676;2023-02-08T07:51:11;102580.13;;;8.83;91.13
21555;BME280;10938;44.794;-0.676;2023-02-08T07:53:37;102574.75;;;10.66;82.77
21555;BME280;10938;44.794;-0.676;2023-02-08T07:56:04;102576.66;;;11.11;78.52
21555;BME280;10938;44.794;-0.676;2023-02-08T07:58:32;102580.47;;;10.78;77.89
21555;BME280;10938;44.794;-0.676;2023-02-08T08:00:58;102585.09;;;10.24;81.13
21555;BME280;10938;44.794;-0.676;2023-02-08T08:03:24;102588.47;;;10.03;85.00
21555;BME280;10938;44.794;-0.676;2023-02-08T08:05:50;102582.88;;;9.76;86.40
21555;BME280;10938;44.794;-0.676;2023-02-08T08:08:16;102581.81;;;9.90;85.06
21555;BME280;10938;44.794;-0.676;2023-02-08T08:10:41;102590.97;;;10.01;87.44
21555;BME280;10938;44.794;-0.676;2023-02-08T08:13:07;102584.88;;;10.01;85.39
21555;BME280;10938;44.794;-0.676;2023-02-08T08:15:33;102586.25;;;9.73;85.78
21555;BME280;10938;44.794;-0.676;2023-02-08T08:17:58;102577.06;;;9.81;85.17
21555;BME280;10938;44.794;-0.676;2023-02-08T08:20:24;102578.44;;;10.12;84.30
21555;BME280;10938;44.794;-0.676;2023-02-08T08:22:50;102579.19;;;10.09;82.38
21555;BME280;10938;44.794;-0.676;2023-02-08T08:25:15;102578.13;;;10.23;83.59
21555;BME280;10938;44.794;-0.676;2023-02-08T08:27:41;102574.00;;;10.28;81.80
21555;BME280;10938;44.794;-0.676;2023-02-08T08:30:08;102574.09;;;10.30;80.98
21555;BME280;10938;44.794;-0.676;2023-02-08T08:32:34;102578.75;;;10.37;80.39
21555;BME280;10938;44.794;-0.676;2023-02-08T08:34:59;102582.59;;;10.66;80.01
21555;BME280;10938;44.794;-0.676;2023-02-08T08:37:25;102578.44;;;10.92;79.16
21555;BME280;10938;44.794;-0.676;2023-02-08T08:39:50;102590.88;;;10.97;79.00
21555;BME280;10938;44.794;-0.676;2023-02-08T08:42:16;102595.00;;;10.71;77.22
21555;BME280;10938;44.794;-0.676;2023-02-08T08:44:41;102589.78;;;10.92;79.23
21555;BME280;10938;44.794;-0.676;2023-02-08T08:47:07;102590.69;;;11.13;78.54
21555;BME280;10938;44.794;-0.676;2023-02-08T08:49:33;102588.75;;;11.30;76.50
21555;BME280;10938;44.794;-0.676;2023-02-08T08:51:59;102586.91;;;11.50;76.79
21555;BME280;10938;44.794;-0.676;2023-02-08T08:54:24;102600.78;;;11.49;75.46
21555;BME280;10938;44.794;-0.676;2023-02-08T08:56:50;102600.78;;;11.49;75.16
21555;BME280;10938;44.794;-0.676;2023-02-08T08:59:15;102598.41;;;11.32;74.93
21555;BME280;10938;44.794;-0.676;2023-02-08T09:01:40;102591.34;;;11.73;74.85
21555;BME280;10938;44.794;-0.676;2023-02-08T09:04:07;102595.94;;;12.02;73.50
21555;BME280;10938;44.794;-0.676;2023-02-08T09:06:33;102591.28;;;12.17;72.87
21555;BME280;10938;44.794;-0.676;2023-02-08T09:08:59;102592.28;;;11.97;73.41
21555;BME280;10938;44.794;-0.676;2023-02-08T09:11:25;102591.69;;;11.82;70.62
21555;BME280;10938;44.794;-0.676;2023-02-08T09:13:51;102593.91;;;11.95;71.37
21555;BME280;10938;44.794;-0.676;2023-02-08T09:16:19;102601.97;;;11.34;72.21
21555;BME280;10938;44.794;-0.676;2023-02-08T09:18:45;102604.34;;;12.17;70.32
21555;BME280;10938;44.794;-0.676;2023-02-08T09:21:19;102601.75;;;12.17;69.92
21555;BME280;10938;44.794;-0.676;2023-02-08T09:23:45;102604.22;;;11.91;69.80
21555;BME280;10938;44.794;-0.676;2023-02-08T09:26:13;102602.00;;;12.25;68.80
21555;BME280;10938;44.794;-0.676;2023-02-08T09:28:39;102602.75;;;12.70;68.51
21555;BME280;10938;44.794;-0.676;2023-02-08T09:31:32;102598.13;;;12.88;66.67
21555;BME280;10938;44.794;-0.676;2023-02-08T09:34:00;102594.81;;;12.43;67.36
21555;BME280;10938;44.794;-0.676;2023-02-08T09:36:28;102588.94;;;12.74;65.70
21555;BME280;10938;44.794;-0.676;2023-02-08T09:39:05;102587.66;;;12.63;65.49
21555;BME280;10938;44.794;-0.676;2023-02-08T09:47:30;102594.84;;;12.94;63.01
21555;BME280;10938;44.794;-0.676;2023-02-08T09:50:15;102592.13;;;12.42;62.91
21555;BME280;10938;44.794;-0.676;2023-02-08T09:52:44;102595.72;;;12.94;63.76
21555;BME280;10938;44.794;-0.676;2023-02-08T09:55:36;102592.19;;;13.19;60.72
21555;BME280;10938;44.794;-0.676;2023-02-08T09:58:56;102594.78;;;13.17;61.23
21555;BME280;10938;44.794;-0.676;2023-02-08T10:00:56;102596.53;;;13.45;61.32
21555;BME280;10938;44.794;-0.676;2023-02-08T10:03:42;102578.91;;;13.39;59.71
21555;BME280;10938;44.794;-0.676;2023-02-08T10:06:14;102584.22;;;13.43;59.21
21555;BME280;10938;44.794;-0.676;2023-02-08T10:08:41;102588.03;;;13.25;57.91
21555;BME280;10938;44.794;-0.676;2023-02-08T10:23:59;102586.75;;;13.96;54.85
21555;BME280;10938;44.794;-0.676;2023-02-08T10:28:44;102595.41;;;13.37;56.99
21555;BME280;10938;44.794;-0.676;2023-02-08T10:33:50;102592.38;;;13.25;57.96
21555;BME280;10938;44.794;-0.676;2023-02-08T10:36:20;102598.94;;;13.37;57.60
21555;BME280;10938;44.794;-0.676;2023-02-08T10:38:48;102591.53;;;13.81;55.21
21555;BME280;10938;44.794;-0.676;2023-02-08T10:41:31;102591.44;;;14.08;54.58
21555;BME280;10938;44.794;-0.676;2023-02-08T10:44:09;102590.84;;;14.18;52.24
21555;BME280;10938;44.794;-0.676;2023-02-08T10:46:46;102594.25;;;13.84;51.95
21555;BME280;10938;44.794;-0.676;2023-02-08T10:49:20;102583.19;;;13.94;52.19
21555;BME280;10938;44.794;-0.676;2023-02-08T10:51:48;102588.06;;;14.41;51.69
21555;BME280;10938;44.794;-0.676;2023-02-08T10:54:14;102586.31;;;14.11;50.31
21555;BME280;10938;44.794;-0.676;2023-02-08T10:56:46;102571.78;;;14.23;49.72
21555;BME280;10938;44.794;-0.676;2023-02-08T10:59:15;102575.25;;;14.22;48.41
21555;BME280;10938;44.794;-0.676;2023-02-08T11:01:44;102566.72;;;14.61;47.77
21555;BME280;10938;44.794;-0.676;2023-02-08T11:04:13;102570.06;;;14.55;46.27
21555;BME280;10938;44.794;-0.676;2023-02-08T11:06:41;102562.06;;;14.51;46.88
21555;BME280;10938;44.794;-0.676;2023-02-08T11:09:22;102562.06;;;14.51;46.04
21555;BME280;10938;44.794;-0.676;2023-02-08T11:11:49;102562.22;;;14.25;44.86
21555;BME280;10938;44.794;-0.676;2023-02-08T11:14:38;102556.59;;;14.12;45.69
21555;BME280;10938;44.794;-0.676;2023-02-08T11:19:50;102553.78;;;14.35;46.37
21555;BME280;10938;44.794;-0.676;2023-02-08T11:22:17;102545.97;;;14.71;45.00
21555;BME280;10938;44.794;-0.676;2023-02-08T11:24:44;102539.72;;;14.66;43.81
21555;BME280;10938;44.794;-0.676;2023-02-08T11:27:35;102546.50;;;14.91;43.43
21555;BME280;10938;44.794;-0.676;2023-02-08T11:30:23;102527.69;;;14.41;46.08
21555;BME280;10938;44.794;-0.676;2023-02-08T11:33:15;102530.78;;;15.31;45.47
21555;BME280;10938;44.794;-0.676;2023-02-08T11:35:50;102521.50;;;15.08;43.17
21555;BME280;10938;44.794;-0.676;2023-02-08T11:38:18;102522.13;;;14.62;42.21
21555;BME280;10938;44.794;-0.676;2023-02-08T11:40:44;102520.94;;;14.50;42.42
21555;BME280;10938;44.794;-0.676;2023-02-08T11:43:22;102509.75;;;14.92;42.36
21555;BME280;10938;44.794;-0.676;2023-02-08T11:45:49;102508.84;;;14.92;42.36
21555;BME280;10938;44.794;-0.676;2023-02-08T11:48:21;102507.94;;;14.90;41.99
21555;BME280;10938;44.794;-0.676;2023-02-08T11:50:54;102504.72;;;14.66;39.86
21555;BME280;10938;44.794;-0.676;2023-02-08T11:58:31;102498.66;;;14.34;40.17
21555;BME280;10938;44.794;-0.676;2023-02-08T12:01:27;102497.72;;;14.66;37.87
21555;BME280;10938;44.794;-0.676;2023-02-08T12:03:55;102492.38;;;14.98;38.38
21555;BME280;10938;44.794;-0.676;2023-02-08T12:07:05;102496.59;;;14.91;38.74
21555;BME280;10938;44.794;-0.676;2023-02-08T12:15:28;102477.84;;;15.13;38.69
21555;BME280;10938;44.794;-0.676;2023-02-08T12:18:08;102479.38;;;14.68;38.05
21555;BME280;10938;44.794;-0.676;2023-02-08T12:20:43;102478.03;;;14.85;38.18
21555;BME280;10938;44.794;-0.676;2023-02-08T12:26:16;102465.84;;;15.24;38.26
21555;BME280;10938;44.794;-0.676;2023-02-08T12:31:54;102460.03;;;15.02;36.43
21555;BME280;10938;44.794;-0.676;2023-02-08T12:37:05;102460.28;;;14.75;36.89
21555;BME280;10938;44.794;-0.676;2023-02-08T12:42:53;102436.59;;;15.09;35.63
21555;BME280;10938;44.794;-0.676;2023-02-08T12:45:39;102445.03;;;14.59;36.56
21555;BME280;10938;44.794;-0.676;2023-02-08T12:53:51;102436.31;;;15.79;35.42
21555;BME280;10938;44.794;-0.676;2023-02-08T12:56:22;102440.03;;;15.07;35.61
21555;BME280;10938;44.794;-0.676;2023-02-08T12:58:52;102438.59;;;15.21;36.33
21555;BME280;10938;44.794;-0.676;2023-02-08T13:01:30;102435.94;;;15.19;35.90
21555;BME280;10938;44.794;-0.676;2023-02-08T13:04:14;102430.50;;;15.12;36.66
21555;BME280;10938;44.794;-0.676;2023-02-08T13:06:42;102425.88;;;15.40;37.12
21555;BME280;10938;44.794;-0.676;2023-02-08T13:12:23;102420.06;;;14.76;38.29
21555;BME280;10938;44.794;-0.676;2023-02-08T13:14:53;102413.72;;;14.66;37.33
21555;BME280;10938;44.794;-0.676;2023-02-08T13:17:38;102416.56;;;15.14;36.70
21555;BME280;10938;44.794;-0.676;2023-02-08T13:20:15;102418.06;;;14.64;36.25
21555;BME280;10938;44.794;-0.676;2023-02-08T13:22:44;102412.19;;;15.15;36.84
21555;BME280;10938;44.794;-0.676;2023-02-08T13:25:20;102409.94;;;15.75;35.08
21555;BME280;10938;44.794;-0.676;2023-02-08T13:27:50;102402.59;;;14.78;35.41
21555;BME280;10938;44.794;-0.676;2023-02-08T13:30:19;102399.19;;;14.80;36.36
21555;BME280;10938;44.794;-0.676;2023-02-08T13:32:49;102405.00;;;13.99;36.78
21555;BME280;10938;44.794;-0.676;2023-02-08T13:35:23;102391.25;;;14.79;36.72
21555;BME280;10938;44.794;-0.676;2023-02-08T13:38:21;102399.34;;;15.72;35.57
21555;BME280;10938;44.794;-0.676;2023-02-08T13:41:37;102393.50;;;15.43;36.06
21555;BME280;10938;44.794;-0.676;2023-02-08T13:44:26;102387.88;;;15.25;36.44
21555;BME280;10938;44.794;-0.676;2023-02-08T13:46:54;102389.34;;;15.11;35.84
21555;BME280;10938;44.794;-0.676;2023-02-08T13:57:58;102394.28;;;15.37;33.73
21555;BME280;10938;44.794;-0.676;2023-02-08T14:03:27;102387.47;;;16.44;33.79
21555;BME280;10938;44.794;-0.676;2023-02-08T14:08:43;102386.06;;;16.12;33.65
21555;BME280;10938;44.794;-0.676;2023-02-08T14:11:15;102378.25;;;15.67;33.37
21555;BME280;10938;44.794;-0.676;2023-02-08T14:19:27;102372.94;;;15.64;33.86
21555;BME280;10938;44.794;-0.676;2023-02-08T14:21:59;102382.81;;;15.34;34.09
21555;BME280;10938;44.794;-0.676;2023-02-08T14:24:37;102379.00;;;15.62;34.13
21555;BME280;10938;44.794;-0.676;2023-02-08T14:27:09;102379.97;;;15.23;34.97
21555;BME280;10938;44.794;-0.676;2023-02-08T14:29:40;102378.22;;;15.66;34.61
21555;BME280;10938;44.794;-0.676;2023-02-08T14:32:06;102381.38;;;15.48;34.59
21555;BME280;10938;44.794;-0.676;2023-02-08T14:34:35;102375.31;;;14.70;36.70
21555;BME280;10938;44.794;-0.676;2023-02-08T14:37:44;102386.66;;;15.09;35.23
21555;BME280;10938;44.794;-0.676;2023-02-08T14:45:39;102389.13;;;14.63;35.39
21555;BME280;10938;44.794;-0.676;2023-02-08T14:48:26;102384.44;;;14.87;35.46
21555;BME280;10938;44.794;-0.676;2023-02-08T14:53:50;102388.41;;;15.07;35.41
21555;BME280;10938;44.794;-0.676;2023-02-08T14:56:47;102381.41;;;15.09;35.39
21555;BME280;10938;44.794;-0.676;2023-02-08T14:59:16;102384.50;;;15.30;35.41
21555;BME280;10938;44.794;-0.676;2023-02-08T15:01:44;102386.47;;;15.42;36.01
21555;BME280;10938;44.794;-0.676;2023-02-08T15:04:11;102370.41;;;15.70;36.13
21555;BME280;10938;44.794;-0.676;2023-02-08T15:09:04;102382.97;;;15.01;37.45
21555;BME280;10938;44.794;-0.676;2023-02-08T15:11:34;102378.63;;;15.43;38.42
21555;BME280;10938;44.794;-0.676;2023-02-08T15:14:02;102378.31;;;15.72;37.52
21555;BME280;10938;44.794;-0.676;2023-02-08T15:16:32;102381.63;;;15.62;38.56
21555;BME280;10938;44.794;-0.676;2023-02-08T15:19:00;102382.44;;;15.16;38.88
21555;BME280;10938;44.794;-0.676;2023-02-08T15:21:29;102374.00;;;15.75;38.36
21555;BME280;10938;44.794;-0.676;2023-02-08T15:24:10;102378.91;;;15.56;38.71
21555;BME280;10938;44.794;-0.676;2023-02-08T15:26:43;102373.31;;;15.40;38.27
21555;BME280;10938;44.794;-0.676;2023-02-08T15:29:23;102376.50;;;15.24;38.44
21555;BME280;10938;44.794;-0.676;2023-02-08T15:31:50;102374.19;;;15.86;38.13
21555;BME280;10938;44.794;-0.676;2023-02-08T15:34:18;102363.69;;;15.86;38.59
21555;BME280;10938;44.794;-0.676;2023-02-08T15:36:55;102367.53;;;16.06;38.28
21555;BME280;10938;44.794;-0.676;2023-02-08T15:39:36;102368.44;;;15.59;39.45
21555;BME280;10938;44.794;-0.676;2023-02-08T15:42:04;102370.16;;;15.57;40.19
21555;BME280;10938;44.794;-0.676;2023-02-08T15:44:33;102370.53;;;15.78;40.45
21555;BME280;10938;44.794;-0.676;2023-02-08T15:47:04;102373.09;;;15.73;40.46
21555;BME280;10938;44.794;-0.676;2023-02-08T15:49:33;102362.16;;;15.52;41.47
21555;BME280;10938;44.794;-0.676;2023-02-08T15:52:00;102360.81;;;16.23;40.68
21555;BME280;10938;44.794;-0.676;2023-02-08T15:54:26;102357.31;;;16.23;40.28
21555;BME280;10938;44.794;-0.676;2023-02-08T15:57:02;102361.97;;;15.43;42.02
21555;BME280;10938;44.794;-0.676;2023-02-08T15:59:31;102355.66;;;15.33;42.86
21555;BME280;10938;44.794;-0.676;2023-02-08T16:02:10;102347.78;;;15.33;42.27
21555;BME280;10938;44.794;-0.676;2023-02-08T16:04:44;102354.19;;;15.04;41.49
21555;BME280;10938;44.794;-0.676;2023-02-08T16:07:42;102344.81;;;15.18;41.40
21555;BME280;10938;44.794;-0.676;2023-02-08T16:10:07;102345.28;;;14.59;42.37
21555;BME280;10938;44.794;-0.676;2023-02-08T16:12:50;102348.94;;;15.04;42.56
21555;BME280;10938;44.794;-0.676;2023-02-08T16:15:36;102346.91;;;14.92;43.04
21555;BME280;10938;44.794;-0.676;2023-02-08T16:18:02;102342.78;;;14.63;42.67
21555;BME280;10938;44.794;-0.676;2023-02-08T16:20:30;102347.78;;;15.33;41.47
21555;BME280;10938;44.794;-0.676;2023-02-08T16:23:25;102349.91;;;14.69;41.41
21555;BME280;10938;44.794;-0.676;2023-02-08T16:25:51;102359.03;;;14.13;41.42
21555;BME280;10938;44.794;-0.676;2023-02-08T16:28:30;102354.34;;;14.00;42.01
21555;BME280;10938;44.794;-0.676;2023-02-08T16:30:58;102354.75;;;14.51;42.12
21555;BME280;10938;44.794;-0.676;2023-02-08T16:33:25;102361.69;;;14.49;41.48
21555;BME280;10938;44.794;-0.676;2023-02-08T16:35:51;102359.38;;;14.28;41.71
21555;BME280;10938;44.794;-0.676;2023-02-08T16:38:20;102362.66;;;13.83;41.56
21555;BME280;10938;44.794;-0.676;2023-02-08T16:40:54;102365.72;;;14.02;41.78
21555;BME280;10938;44.794;-0.676;2023-02-08T16:48:38;102356.53;;;13.52;42.84
21555;BME280;10938;44.794;-0.676;2023-02-08T16:51:06;102366.19;;;13.53;43.33
21555;BME280;10938;44.794;-0.676;2023-02-08T16:53:34;102362.16;;;13.65;43.17
21555;BME280;10938;44.794;-0.676;2023-02-08T16:56:01;102356.31;;;13.43;43.37
21555;BME280;10938;44.794;-0.676;2023-02-08T16:58:27;102361.19;;;13.62;43.66
21555;BME280;10938;44.794;-0.676;2023-02-08T17:00:52;102366.06;;;13.48;44.45
21555;BME280;10938;44.794;-0.676;2023-02-08T17:03:18;102369.75;;;13.25;45.40
21555;BME280;10938;44.794;-0.676;2023-02-08T17:05:44;102364.22;;;13.44;45.64
21555;BME280;10938;44.794;-0.676;2023-02-08T17:08:15;102366.94;;;13.49;45.86